createdAt,value
2023-03-29T00:02:41.281Z,62.09
2023-03-29T00:07:43.461Z,62.39
2023-03-29T00:12:45.581Z,62.24
2023-03-29T00:17:47.665Z,62.05
2023-03-29T00:22:49.851Z,61.76
2023-03-29T00:27:51.860Z,61.98
2023-03-29T00:32:54.030Z,61.59
2023-03-29T00:37:57.374Z,61.28
2023-03-29T00:43:00.587Z,60.63
2023-03-29T00:48:06.581Z,61.24
2023-03-29T00:53:17.352Z,60.78
2023-03-29T00:58:26.671Z,60.72
2023-03-29T01:03:34.321Z,61.14
2023-03-29T01:08:44.780Z,60.86
2023-03-29T01:14:08.846Z,60.01
2023-03-29T01:19:16.014Z,60.68
2023-03-29T01:24:33.463Z,60.86
2023-03-29T01:29:38.682Z,61.45
2023-03-29T01:34:55.378Z,61.01
2023-03-29T01:39:57.450Z,60.80
2023-03-29T01:45:09.100Z,60.64
2023-03-29T01:50:19.840Z,61.36
2023-03-29T01:55:51.393Z,60.58
2023-03-29T02:00:55.417Z,60.63
2023-03-29T02:05:59.609Z,61.08
2023-03-29T02:11:03.202Z,61.05
2023-03-29T02:16:13.408Z,60.88
2023-03-29T02:21:37.372Z,60.55
2023-03-29T02:26:39.622Z,61.23
2023-03-29T02:31:49.573Z,61.29
2023-03-29T02:37:06.971Z,60.04
2023-03-29T02:42:10.019Z,61.00
2023-03-29T02:47:22.072Z,60.83
2023-03-29T02:52:35.616Z,60.28
2023-03-29T02:57:39.534Z,60.30
2023-03-29T03:02:41.970Z,61.12
2023-03-29T03:07:46.235Z,61.30
2023-03-29T03:12:49.023Z,60.61
2023-03-29T03:17:51.197Z,61.52
2023-03-29T03:22:53.253Z,60.89
2023-03-29T03:27:55.429Z,60.71
2023-03-29T03:32:59.691Z,60.71
2023-03-29T03:38:20.212Z,60.71
2023-03-29T03:43:30.408Z,60.66
2023-03-29T03:48:33.451Z,60.86
2023-03-29T03:53:51.777Z,60.03
2023-03-29T03:59:20.032Z,59.91
2023-03-29T04:04:34.930Z,59.54
2023-03-29T04:09:41.505Z,59.67
2023-03-29T04:15:20.366Z,59.41
2023-03-29T04:20:33.753Z,59.69
2023-03-29T04:25:36.746Z,59.25
2023-03-29T04:31:13.312Z,58.92
2023-03-29T04:36:44.642Z,58.51
2023-03-29T04:41:53.647Z,57.58
2023-03-29T04:47:01.039Z,57.27
2023-03-29T04:52:24.419Z,56.75
2023-03-29T04:57:27.920Z,57.04
2023-03-29T05:02:34.383Z,57.45
2023-03-29T05:07:38.068Z,57.39
2023-03-29T05:12:40.394Z,57.45
2023-03-29T05:17:42.634Z,56.86
2023-03-29T05:22:47.351Z,56.67
2023-03-29T05:28:03.623Z,55.48
2023-03-29T05:33:06.553Z,55.53
2023-03-29T05:38:10.027Z,55.11
2023-03-29T05:43:12.722Z,55.08
2023-03-29T05:48:14.673Z,54.61
2023-03-29T05:53:19.605Z,54.40
2023-03-29T05:58:22.256Z,54.48
2023-03-29T06:03:27.563Z,54.36
2023-03-29T06:08:35.271Z,53.54
2023-03-29T06:14:04.793Z,53.66
2023-03-29T06:19:07.788Z,52.98
2023-03-29T06:24:10.965Z,53.11
2023-03-29T06:29:19.689Z,52.69
2023-03-29T06:34:23.049Z,52.66
2023-03-29T06:39:53.451Z,52.90
2023-03-29T06:45:10.995Z,52.59
2023-03-29T06:50:14.805Z,52.68
2023-03-29T06:55:42.145Z,52.49
2023-03-29T07:01:07.555Z,54.64
2023-03-29T07:06:22.398Z,53.31
2023-03-29T07:11:25.289Z,54.34
2023-03-29T07:16:32.721Z,53.75
2023-03-29T07:22:01.191Z,54.45
2023-03-29T07:27:17.928Z,54.52
2023-03-29T07:32:23.846Z,56.36
2023-03-29T07:37:35.283Z,56.88
2023-03-29T07:42:38.488Z,55.91
2023-03-29T07:47:49.288Z,58.55
2023-03-29T07:52:52.090Z,58.34
2023-03-29T07:57:54.781Z,58.57
2023-03-29T08:02:57.708Z,58.78
2023-03-29T08:07:59.894Z,58.10
2023-03-29T08:13:22.160Z,58.96
2023-03-29T08:18:44.460Z,58.64
2023-03-29T08:23:47.154Z,58.39
2023-03-29T08:28:56.879Z,57.83
2023-03-29T08:34:02.057Z,58.63
2023-03-29T08:39:32.748Z,57.17
2023-03-29T08:45:16.048Z,58.32
2023-03-29T08:50:32.610Z,55.12
2023-03-29T08:55:43.682Z,56.41
2023-03-29T09:01:19.224Z,56.83
2023-03-29T09:06:31.804Z,58.01
2023-03-29T09:11:53.468Z,59.83
2023-03-29T09:17:08.364Z,60.68
2023-03-29T09:22:28.105Z,62.90
2023-03-29T09:27:48.636Z,63.76
2023-03-29T09:33:25.023Z,64.44
2023-03-29T09:38:51.100Z,65.12
2023-03-29T09:43:56.399Z,65.71
2023-03-29T09:49:07.051Z,65.65
2023-03-29T09:54:12.585Z,66.07
2023-03-29T09:59:33.162Z,65.88
2023-03-29T10:04:36.190Z,66.97
2023-03-29T10:09:42.334Z,68.18
2023-03-29T10:14:54.388Z,67.57
2023-03-29T10:19:59.203Z,67.46
2023-03-29T10:25:02.431Z,67.51
2023-03-29T10:30:14.175Z,67.71
2023-03-29T10:35:34.857Z,67.75
2023-03-29T10:40:45.226Z,68.93
2023-03-29T10:45:52.770Z,68.46
2023-03-29T10:51:00.287Z,69.60
2023-03-29T10:56:28.022Z,69.71
2023-03-29T11:01:44.362Z,69.88
2023-03-29T11:07:08.799Z,69.94
2023-03-29T11:12:26.581Z,69.97
2023-03-29T11:18:05.985Z,70.67
2023-03-29T11:23:27.539Z,70.92
2023-03-29T11:28:53.055Z,71.08
2023-03-29T11:34:20.258Z,72.17
2023-03-29T11:39:43.545Z,71.91
2023-03-29T11:44:50.739Z,71.83
2023-03-29T11:50:24.876Z,71.24
2023-03-29T11:55:32.437Z,71.44
2023-03-29T12:00:46.582Z,71.64
2023-03-29T12:05:56.819Z,72.07
2023-03-29T12:11:29.173Z,71.87
2023-03-29T12:17:03.200Z,72.14
2023-03-29T12:22:07.947Z,71.92
2023-03-29T12:27:17.237Z,72.56
2023-03-29T12:32:37.810Z,72.74
2023-03-29T12:38:21.012Z,72.12
2023-03-29T12:44:03.576Z,72.18
2023-03-29T12:49:32.615Z,72.93
2023-03-29T12:54:34.775Z,72.98
2023-03-29T12:59:46.391Z,72.95
2023-03-29T13:04:48.414Z,72.92
2023-03-29T13:10:08.693Z,72.85
2023-03-29T13:15:19.360Z,72.81
2023-03-29T13:20:50.946Z,73.01
2023-03-29T13:26:06.448Z,73.19
2023-03-29T13:31:23.551Z,73.09
2023-03-29T13:36:46.281Z,73.62
2023-03-29T13:41:53.109Z,73.89
2023-03-29T13:47:19.348Z,74.03
2023-03-29T13:52:21.374Z,73.14
2023-03-29T13:57:30.293Z,73.36
2023-03-29T14:02:49.428Z,74.03
2023-03-29T14:07:54.437Z,74.01
2023-03-29T14:12:57.744Z,74.08
2023-03-29T14:18:01.579Z,74.02
2023-03-29T14:23:20.049Z,74.39
2023-03-29T14:28:24.956Z,75.17
2023-03-29T14:33:29.377Z,75.09
2023-03-29T14:38:32.340Z,75.07
2023-03-29T14:43:34.397Z,75.15
2023-03-29T14:48:37.525Z,74.82
2023-03-29T14:53:41.746Z,75.04
2023-03-29T14:58:47.402Z,74.83
2023-03-29T15:04:02.069Z,74.20
2023-03-29T15:09:06.591Z,73.93
2023-03-29T15:14:16.823Z,74.65
2023-03-29T15:19:22.207Z,73.83
2023-03-29T15:24:33.337Z,73.80
2023-03-29T15:29:41.909Z,74.69
2023-03-29T15:34:44.048Z,73.82
2023-03-29T15:39:46.118Z,73.91
2023-03-29T15:44:48.210Z,74.17
2023-03-29T15:49:50.769Z,73.78
2023-03-29T15:54:52.810Z,73.33
2023-03-29T15:59:54.950Z,73.44
2023-03-29T16:04:56.998Z,73.88
2023-03-29T16:09:59.081Z,74.00
2023-03-29T16:15:01.189Z,73.92
2023-03-29T16:20:05.431Z,73.79
2023-03-29T16:25:13.596Z,74.38
2023-03-29T16:30:16.165Z,74.16
2023-03-29T16:35:30.603Z,74.47
2023-03-29T16:40:33.404Z,73.91
2023-03-29T16:45:35.471Z,73.59
2023-03-29T16:50:37.771Z,73.99
2023-03-29T16:55:40.437Z,73.61
2023-03-29T17:00:45.693Z,72.97
2023-03-29T17:05:54.562Z,73.05
2023-03-29T17:10:56.682Z,73.16
2023-03-29T17:15:58.851Z,73.05
2023-03-29T17:21:01.729Z,73.07
2023-03-29T17:26:04.855Z,72.92
2023-03-29T17:31:08.064Z,72.64
2023-03-29T17:36:10.753Z,72.74
2023-03-29T17:41:12.818Z,73.44
2023-03-29T17:46:16.631Z,73.56
2023-03-29T17:51:19.934Z,73.55
2023-03-29T17:56:22.907Z,73.17
2023-03-29T18:01:25.172Z,73.14
2023-03-29T18:06:27.369Z,73.58
2023-03-29T18:11:29.692Z,72.95
2023-03-29T18:16:31.824Z,73.63
2023-03-29T18:21:33.930Z,73.44
2023-03-29T18:26:36.041Z,73.23
2023-03-29T18:31:38.167Z,73.76
2023-03-29T18:36:40.409Z,74.06
2023-03-29T18:41:42.440Z,73.63
2023-03-29T18:46:44.807Z,74.13
2023-03-29T18:51:47.741Z,73.84
2023-03-29T18:56:50.042Z,73.78
2023-03-29T19:01:52.359Z,73.80
2023-03-29T19:06:56.131Z,74.26
2023-03-29T19:11:58.249Z,74.12
2023-03-29T19:17:00.470Z,74.50
2023-03-29T19:22:02.638Z,75.25
2023-03-29T19:27:06.562Z,75.83
2023-03-29T19:32:08.742Z,75.93
2023-03-29T19:37:11.106Z,75.92
2023-03-29T19:42:13.247Z,75.74
2023-03-29T19:47:15.787Z,75.88
2023-03-29T19:52:17.943Z,75.73
2023-03-29T19:57:20.093Z,75.99
2023-03-29T20:02:22.289Z,76.26
2023-03-29T20:07:24.364Z,75.63
2023-03-29T20:12:26.575Z,76.20
2023-03-29T20:17:28.979Z,76.01
2023-03-29T20:22:32.826Z,75.91
2023-03-29T20:27:35.533Z,76.13
2023-03-29T20:32:37.836Z,75.98
2023-03-29T20:37:40.108Z,75.52
2023-03-29T20:42:42.301Z,75.61
2023-03-29T20:47:56.030Z,75.51
2023-03-29T20:53:02.285Z,76.30
2023-03-29T20:58:05.536Z,75.76
2023-03-29T21:03:08.654Z,75.67
2023-03-29T21:08:11.020Z,75.53
2023-03-29T21:13:13.172Z,75.10
2023-03-29T21:18:15.914Z,75.19
2023-03-29T21:23:18.001Z,75.16
2023-03-29T21:28:20.143Z,75.06
2023-03-29T21:33:22.349Z,75.47
2023-03-29T21:38:24.500Z,75.24
2023-03-29T21:43:26.604Z,75.39
2023-03-29T21:48:29.115Z,75.14
2023-03-29T21:53:31.433Z,75.48
2023-03-29T21:58:33.568Z,74.70
2023-03-29T22:03:37.519Z,75.36
2023-03-29T22:08:40.004Z,75.10
2023-03-29T22:13:42.945Z,75.34
2023-03-29T22:18:49.750Z,75.24
2023-03-29T22:23:54.266Z,75.33
2023-03-29T22:28:57.591Z,75.66
2023-03-29T22:34:00.785Z,75.41
2023-03-29T22:39:02.938Z,75.77
2023-03-29T22:44:05.858Z,75.51
2023-03-29T22:49:07.994Z,75.25
2023-03-29T22:54:10.094Z,75.65
2023-03-29T22:59:12.247Z,75.61
2023-03-29T23:04:14.724Z,75.67
2023-03-29T23:09:16.949Z,75.71
2023-03-29T23:14:19.105Z,75.46
2023-03-29T23:19:21.237Z,75.40
2023-03-29T23:24:23.580Z,75.01
2023-03-29T23:29:26.452Z,75.46
2023-03-29T23:34:28.809Z,75.14
2023-03-29T23:39:31.081Z,74.87
2023-03-29T23:44:33.224Z,75.35
2023-03-29T23:49:36.309Z,75.39
2023-03-29T23:54:38.334Z,75.13
2023-03-29T23:59:40.468Z,74.51
